sensor_id;sensor_type;location;lat;lon;timestamp;temperature;humidity
44851;DHT22;30583;48.714;9.386;2023-05-01T00:02:20;12.80;67.90
44851;DHT22;30583;48.714;9.386;2023-05-01T00:04:45;12.80;67.70
44851;DHT22;30583;48.714;9.386;2023-05-01T00:07:11;12.80;67.30
44851;DHT22;30583;48.714;9.386;2023-05-01T00:09:37;12.70;68.10
44851;DHT22;30583;48.714;9.386;2023-05-01T00:12:02;12.80;67.60
44851;DHT22;30583;48.714;9.386;2023-05-01T00:14:29;12.80;67.80
44851;DHT22;30583;48.714;9.386;2023-05-01T00:16:54;12.70;68.60
44851;DHT22;30583;48.714;9.386;2023-05-01T00:19:20;13.00;68.20
44851;DHT22;30583;48.714;9.386;2023-05-01T00:21:46;12.90;68.00
44851;DHT22;30583;48.714;9.386;2023-05-01T00:24:13;13.00;68.10
44851;DHT22;30583;48.714;9.386;2023-05-01T00:26:38;13.20;67.50
44851;DHT22;30583;48.714;9.386;2023-05-01T00:29:04;12.70;68.90
44851;DHT22;30583;48.714;9.386;2023-05-01T00:31:29;12.90;68.90
44851;DHT22;30583;48.714;9.386;2023-05-01T00:33:55;12.50;69.70
44851;DHT22;30583;48.714;9.386;2023-05-01T00:36:21;12.40;70.20
44851;DHT22;30583;48.714;9.386;2023-05-01T00:38:46;12.40;70.00
44851;DHT22;30583;48.714;9.386;2023-05-01T00:41:12;12.60;69.80
44851;DHT22;30583;48.714;9.386;2023-05-01T00:43:38;12.40;69.90
44851;DHT22;30583;48.714;9.386;2023-05-01T00:46:03;12.40;70.10
44851;DHT22;30583;48.714;9.386;2023-05-01T00:48:29;12.40;70.00
44851;DHT22;30583;48.714;9.386;2023-05-01T00:50:55;12.50;69.90
44851;DHT22;30583;48.714;9.386;2023-05-01T00:53:23;12.50;70.10
44851;DHT22;30583;48.714;9.386;2023-05-01T00:55:50;12.40;70.80
44851;DHT22;30583;48.714;9.386;2023-05-01T00:58:17;12.20;71.40
44851;DHT22;30583;48.714;9.386;2023-05-01T01:00:43;12.20;71.70
44851;DHT22;30583;48.714;9.386;2023-05-01T01:03:09;12.30;71.10
44851;DHT22;30583;48.714;9.386;2023-05-01T01:05:45;12.40;70.70
44851;DHT22;30583;48.714;9.386;2023-05-01T01:08:25;12.60;70.30
44851;DHT22;30583;48.714;9.386;2023-05-01T01:10:59;12.70;69.80
44851;DHT22;30583;48.714;9.386;2023-05-01T01:15:58;12.50;69.90
44851;DHT22;30583;48.714;9.386;2023-05-01T01:29:21;12.00;70.40
44851;DHT22;30583;48.714;9.386;2023-05-01T01:34:46;12.10;70.90
44851;DHT22;30583;48.714;9.386;2023-05-01T01:37:22;12.00;71.00
44851;DHT22;30583;48.714;9.386;2023-05-01T01:40:02;12.40;69.80
44851;DHT22;30583;48.714;9.386;2023-05-01T01:43:01;12.70;69.10
44851;DHT22;30583;48.714;9.386;2023-05-01T01:45:35;12.40;70.00
44851;DHT22;30583;48.714;9.386;2023-05-01T01:48:02;12.50;69.40
44851;DHT22;30583;48.714;9.386;2023-05-01T01:50:31;12.60;69.10
44851;DHT22;30583;48.714;9.386;2023-05-01T01:52:59;12.70;69.00
44851;DHT22;30583;48.714;9.386;2023-05-01T01:55:28;12.40;70.10
44851;DHT22;30583;48.714;9.386;2023-05-01T01:57:55;12.60;69.50
44851;DHT22;30583;48.714;9.386;2023-05-01T02:00:23;12.70;69.20
44851;DHT22;30583;48.714;9.386;2023-05-01T02:02:49;12.40;69.60
44851;DHT22;30583;48.714;9.386;2023-05-01T02:05:18;12.30;70.30
44851;DHT22;30583;48.714;9.386;2023-05-01T02:07:48;12.40;69.80
44851;DHT22;30583;48.714;9.386;2023-05-01T02:10:14;12.60;69.40
44851;DHT22;30583;48.714;9.386;2023-05-01T02:12:50;12.70;69.30
44851;DHT22;30583;48.714;9.386;2023-05-01T02:15:18;12.70;69.00
44851;DHT22;30583;48.714;9.386;2023-05-01T02:17:44;12.60;69.30
44851;DHT22;30583;48.714;9.386;2023-05-01T02:20:11;12.50;69.70
44851;DHT22;30583;48.714;9.386;2023-05-01T02:22:39;12.50;69.60
44851;DHT22;30583;48.714;9.386;2023-05-01T02:25:07;12.40;70.50
44851;DHT22;30583;48.714;9.386;2023-05-01T02:27:39;12.20;71.10
44851;DHT22;30583;48.714;9.386;2023-05-01T02:30:08;12.30;71.10
44851;DHT22;30583;48.714;9.386;2023-05-01T02:32:34;12.60;70.50
44851;DHT22;30583;48.714;9.386;2023-05-01T02:34:59;12.50;70.50
44851;DHT22;30583;48.714;9.386;2023-05-01T02:37:26;12.50;70.80
44851;DHT22;30583;48.714;9.386;2023-05-01T02:39:52;12.60;70.70
44851;DHT22;30583;48.714;9.386;2023-05-01T02:42:19;12.60;70.70
44851;DHT22;30583;48.714;9.386;2023-05-01T02:44:54;12.60;71.20
44851;DHT22;30583;48.714;9.386;2023-05-01T02:47:22;12.60;70.60
44851;DHT22;30583;48.714;9.386;2023-05-01T02:49:50;12.70;70.30
44851;DHT22;30583;48.714;9.386;2023-05-01T02:52:17;12.60;70.50
44851;DHT22;30583;48.714;9.386;2023-05-01T02:54:43;12.70;70.70
44851;DHT22;30583;48.714;9.386;2023-05-01T02:57:10;12.50;70.90
44851;DHT22;30583;48.714;9.386;2023-05-01T02:59:36;12.40;71.20
44851;DHT22;30583;48.714;9.386;2023-05-01T03:02:01;12.30;71.70
44851;DHT22;30583;48.714;9.386;2023-05-01T03:04:27;12.20;71.80
44851;DHT22;30583;48.714;9.386;2023-05-01T03:06:53;12.40;71.70
44851;DHT22;30583;48.714;9.386;2023-05-01T03:09:19;12.30;72.40
44851;DHT22;30583;48.714;9.386;2023-05-01T03:11:45;12.40;71.80
44851;DHT22;30583;48.714;9.386;2023-05-01T03:14:11;12.50;71.20
44851;DHT22;30583;48.714;9.386;2023-05-01T03:16:37;12.60;71.10
44851;DHT22;30583;48.714;9.386;2023-05-01T03:19:02;12.30;72.00
44851;DHT22;30583;48.714;9.386;2023-05-01T03:21:28;12.20;71.80
44851;DHT22;30583;48.714;9.386;2023-05-01T03:23:53;12.30;71.90
44851;DHT22;30583;48.714;9.386;2023-05-01T03:26:19;12.50;71.50
44851;DHT22;30583;48.714;9.386;2023-05-01T03:28:45;12.60;70.80
44851;DHT22;30583;48.714;9.386;2023-05-01T03:31:11;12.70;70.60
44851;DHT22;30583;48.714;9.386;2023-05-01T03:33:36;12.50;71.10
44851;DHT22;30583;48.714;9.386;2023-05-01T03:36:03;12.40;71.30
44851;DHT22;30583;48.714;9.386;2023-05-01T03:38:30;12.40;71.90
44851;DHT22;30583;48.714;9.386;2023-05-01T03:40:57;12.50;71.20
44851;DHT22;30583;48.714;9.386;2023-05-01T03:43:23;12.40;71.60
44851;DHT22;30583;48.714;9.386;2023-05-01T03:45:49;12.50;71.30
44851;DHT22;30583;48.714;9.386;2023-05-01T03:48:16;12.50;71.30
44851;DHT22;30583;48.714;9.386;2023-05-01T03:50:42;12.30;71.90
44851;DHT22;30583;48.714;9.386;2023-05-01T03:53:07;12.40;72.00
44851;DHT22;30583;48.714;9.386;2023-05-01T03:55:33;12.20;72.40
44851;DHT22;30583;48.714;9.386;2023-05-01T03:57:59;12.20;72.50
44851;DHT22;30583;48.714;9.386;2023-05-01T04:00:25;12.40;71.90
44851;DHT22;30583;48.714;9.386;2023-05-01T04:02:50;12.40;71.70
44851;DHT22;30583;48.714;9.386;2023-05-01T04:05:17;12.40;72.20
44851;DHT22;30583;48.714;9.386;2023-05-01T04:07:43;12.10;72.70
44851;DHT22;30583;48.714;9.386;2023-05-01T04:10:09;12.30;72.30
44851;DHT22;30583;48.714;9.386;2023-05-01T04:12:35;12.30;72.20
44851;DHT22;30583;48.714;9.386;2023-05-01T04:15:00;12.10;72.50
44851;DHT22;30583;48.714;9.386;2023-05-01T04:17:27;12.40;71.80
44851;DHT22;30583;48.714;9.386;2023-05-01T04:19:53;12.30;72.10
44851;DHT22;30583;48.714;9.386;2023-05-01T04:22:20;12.50;71.50
44851;DHT22;30583;48.714;9.386;2023-05-01T04:24:46;12.40;71.40
44851;DHT22;30583;48.714;9.386;2023-05-01T04:27:11;12.40;71.50
44851;DHT22;30583;48.714;9.386;2023-05-01T04:29:37;12.70;70.80
44851;DHT22;30583;48.714;9.386;2023-05-01T04:32:02;12.50;70.50
44851;DHT22;30583;48.714;9.386;2023-05-01T04:34:28;12.50;70.90
44851;DHT22;30583;48.714;9.386;2023-05-01T04:36:57;12.70;70.00
44851;DHT22;30583;48.714;9.386;2023-05-01T04:39:22;12.80;69.40
44851;DHT22;30583;48.714;9.386;2023-05-01T04:41:48;12.70;70.30
44851;DHT22;30583;48.714;9.386;2023-05-01T04:44:14;12.70;70.00
44851;DHT22;30583;48.714;9.386;2023-05-01T04:46:39;12.60;70.00
44851;DHT22;30583;48.714;9.386;2023-05-01T04:49:05;12.70;69.70
44851;DHT22;30583;48.714;9.386;2023-05-01T04:51:31;12.70;70.20
44851;DHT22;30583;48.714;9.386;2023-05-01T04:53:56;12.40;70.80
44851;DHT22;30583;48.714;9.386;2023-05-01T04:56:23;12.80;70.00
44851;DHT22;30583;48.714;9.386;2023-05-01T04:58:49;12.70;69.80
44851;DHT22;30583;48.714;9.386;2023-05-01T05:01:14;12.60;70.00
44851;DHT22;30583;48.714;9.386;2023-05-01T05:03:40;12.50;70.30
44851;DHT22;30583;48.714;9.386;2023-05-01T05:06:05;12.60;70.10
44851;DHT22;30583;48.714;9.386;2023-05-01T05:08:31;12.60;69.70
44851;DHT22;30583;48.714;9.386;2023-05-01T05:10:58;12.90;69.60
44851;DHT22;30583;48.714;9.386;2023-05-01T05:13:26;13.00;69.10
44851;DHT22;30583;48.714;9.386;2023-05-01T05:15:52;13.10;69.60
44851;DHT22;30583;48.714;9.386;2023-05-01T05:18:18;13.00;69.20
44851;DHT22;30583;48.714;9.386;2023-05-01T05:20:44;13.10;69.20
44851;DHT22;30583;48.714;9.386;2023-05-01T05:23:10;13.10;69.40
44851;DHT22;30583;48.714;9.386;2023-05-01T05:25:36;13.20;68.80
44851;DHT22;30583;48.714;9.386;2023-05-01T05:28:02;13.30;68.50
44851;DHT22;30583;48.714;9.386;2023-05-01T05:30:28;13.40;67.80
44851;DHT22;30583;48.714;9.386;2023-05-01T05:32:54;13.40;67.50
44851;DHT22;30583;48.714;9.386;2023-05-01T05:35:19;13.20;68.00
44851;DHT22;30583;48.714;9.386;2023-05-01T05:37:46;13.20;68.20
44851;DHT22;30583;48.714;9.386;2023-05-01T05:40:12;13.20;68.30
44851;DHT22;30583;48.714;9.386;2023-05-01T05:42:37;13.30;68.40
44851;DHT22;30583;48.714;9.386;2023-05-01T05:45:04;13.10;69.70
44851;DHT22;30583;48.714;9.386;2023-05-01T05:47:29;13.10;70.10
44851;DHT22;30583;48.714;9.386;2023-05-01T05:49:55;12.90;70.70
44851;DHT22;30583;48.714;9.386;2023-05-01T05:52:20;13.10;70.30
44851;DHT22;30583;48.714;9.386;2023-05-01T05:54:46;13.10;70.30
44851;DHT22;30583;48.714;9.386;2023-05-01T05:57:12;12.80;71.20
44851;DHT22;30583;48.714;9.386;2023-05-01T05:59:37;12.70;71.40
44851;DHT22;30583;48.714;9.386;2023-05-01T06:02:03;12.80;71.70
44851;DHT22;30583;48.714;9.386;2023-05-01T06:04:29;13.00;71.10
44851;DHT22;30583;48.714;9.386;2023-05-01T06:06:54;12.90;72.00
44851;DHT22;30583;48.714;9.386;2023-05-01T06:09:20;12.90;71.30
44851;DHT22;30583;48.714;9.386;2023-05-01T06:11:46;12.90;71.20
44851;DHT22;30583;48.714;9.386;2023-05-01T06:14:12;13.10;71.20
44851;DHT22;30583;48.714;9.386;2023-05-01T06:16:38;13.20;71.10
44851;DHT22;30583;48.714;9.386;2023-05-01T06:19:03;13.20;70.80
44851;DHT22;30583;48.714;9.386;2023-05-01T06:21:29;13.20;71.20
44851;DHT22;30583;48.714;9.386;2023-05-01T06:23:57;13.30;71.10
44851;DHT22;30583;48.714;9.386;2023-05-01T06:26:22;13.20;71.30
44851;DHT22;30583;48.714;9.386;2023-05-01T06:28:48;12.90;71.80
44851;DHT22;30583;48.714;9.386;2023-05-01T06:31:13;12.90;72.20
44851;DHT22;30583;48.714;9.386;2023-05-01T06:33:39;13.10;72.20
44851;DHT22;30583;48.714;9.386;2023-05-01T06:36:05;13.20;71.70
44851;DHT22;30583;48.714;9.386;2023-05-01T06:38:30;13.10;72.20
44851;DHT22;30583;48.714;9.386;2023-05-01T06:40:57;13.20;71.60
44851;DHT22;30583;48.714;9.386;2023-05-01T06:43:23;13.10;72.00
44851;DHT22;30583;48.714;9.386;2023-05-01T06:45:52;13.00;72.40
44851;DHT22;30583;48.714;9.386;2023-05-01T06:48:18;13.10;72.60
44851;DHT22;30583;48.714;9.386;2023-05-01T06:50:43;12.90;72.80
44851;DHT22;30583;48.714;9.386;2023-05-01T06:53:09;12.80;71.40
44851;DHT22;30583;48.714;9.386;2023-05-01T06:55:34;12.60;72.40
44851;DHT22;30583;48.714;9.386;2023-05-01T06:58:00;12.50;72.30
44851;DHT22;30583;48.714;9.386;2023-05-01T07:00:25;12.30;73.10
44851;DHT22;30583;48.714;9.386;2023-05-01T07:02:51;12.60;72.60
44851;DHT22;30583;48.714;9.386;2023-05-01T07:05:17;12.80;72.00
44851;DHT22;30583;48.714;9.386;2023-05-01T07:07:42;13.20;70.70
44851;DHT22;30583;48.714;9.386;2023-05-01T07:10:09;13.20;70.60
44851;DHT22;30583;48.714;9.386;2023-05-01T07:12:34;13.20;70.60
44851;DHT22;30583;48.714;9.386;2023-05-01T07:15:00;13.10;71.10
44851;DHT22;30583;48.714;9.386;2023-05-01T07:17:27;12.60;71.70
44851;DHT22;30583;48.714;9.386;2023-05-01T07:19:53;12.90;71.50
44851;DHT22;30583;48.714;9.386;2023-05-01T07:22:19;13.10;71.20
44851;DHT22;30583;48.714;9.386;2023-05-01T07:24:44;12.80;70.60
44851;DHT22;30583;48.714;9.386;2023-05-01T07:27:10;13.20;70.00
44851;DHT22;30583;48.714;9.386;2023-05-01T07:29:37;13.40;69.50
44851;DHT22;30583;48.714;9.386;2023-05-01T07:32:04;13.20;70.10
44851;DHT22;30583;48.714;9.386;2023-05-01T07:34:30;13.20;70.80
44851;DHT22;30583;48.714;9.386;2023-05-01T07:36:56;13.30;71.40
44851;DHT22;30583;48.714;9.386;2023-05-01T07:39:22;13.40;71.60
44851;DHT22;30583;48.714;9.386;2023-05-01T07:41:47;13.30;72.50
44851;DHT22;30583;48.714;9.386;2023-05-01T07:44:13;13.30;73.20
44851;DHT22;30583;48.714;9.386;2023-05-01T07:46:38;13.40;72.80
44851;DHT22;30583;48.714;9.386;2023-05-01T07:49:04;13.20;73.30
44851;DHT22;30583;48.714;9.386;2023-05-01T07:51:30;13.20;73.40
44851;DHT22;30583;48.714;9.386;2023-05-01T07:53:56;13.20;73.40
44851;DHT22;30583;48.714;9.386;2023-05-01T07:56:21;13.00;73.90
44851;DHT22;30583;48.714;9.386;2023-05-01T07:58:47;13.20;73.10
44851;DHT22;30583;48.714;9.386;2023-05-01T08:01:12;13.30;73.50
44851;DHT22;30583;48.714;9.386;2023-05-01T08:03:38;13.40;73.70
44851;DHT22;30583;48.714;9.386;2023-05-01T08:06:04;13.40;73.30
44851;DHT22;30583;48.714;9.386;2023-05-01T08:08:30;13.50;73.00
44851;DHT22;30583;48.714;9.386;2023-05-01T08:10:56;13.70;72.30
44851;DHT22;30583;48.714;9.386;2023-05-01T08:13:21;13.60;72.30
44851;DHT22;30583;48.714;9.386;2023-05-01T08:15:47;13.60;71.30
44851;DHT22;30583;48.714;9.386;2023-05-01T08:18:13;13.60;71.90
44851;DHT22;30583;48.714;9.386;2023-05-01T08:20:46;13.60;72.00
44851;DHT22;30583;48.714;9.386;2023-05-01T08:23:13;14.00;70.50
44851;DHT22;30583;48.714;9.386;2023-05-01T08:25:38;14.40;69.00
44851;DHT22;30583;48.714;9.386;2023-05-01T08:28:04;14.40;69.50
44851;DHT22;30583;48.714;9.386;2023-05-01T08:30:30;14.40;70.10
44851;DHT22;30583;48.714;9.386;2023-05-01T08:32:56;14.80;69.40
44851;DHT22;30583;48.714;9.386;2023-05-01T08:35:21;14.60;69.50
44851;DHT22;30583;48.714;9.386;2023-05-01T08:37:47;14.70;69.40
44851;DHT22;30583;48.714;9.386;2023-05-01T08:40:14;14.90;67.40
44851;DHT22;30583;48.714;9.386;2023-05-01T08:42:39;18.30;62.10
44851;DHT22;30583;48.714;9.386;2023-05-01T08:45:09;19.60;56.60
44851;DHT22;30583;48.714;9.386;2023-05-01T08:47:39;19.70;54.70
44851;DHT22;30583;48.714;9.386;2023-05-01T08:50:08;19.40;55.20
44851;DHT22;30583;48.714;9.386;2023-05-01T08:52:39;17.70;58.30
44851;DHT22;30583;48.714;9.386;2023-05-01T08:55:10;18.70;57.40
44851;DHT22;30583;48.714;9.386;2023-05-01T08:57:37;19.50;55.10
44851;DHT22;30583;48.714;9.386;2023-05-01T09:00:03;17.30;60.60
44851;DHT22;30583;48.714;9.386;2023-05-01T09:02:30;16.10;63.80
44851;DHT22;30583;48.714;9.386;2023-05-01T09:05:00;15.40;66.10
44851;DHT22;30583;48.714;9.386;2023-05-01T09:07:26;15.30;65.60
44851;DHT22;30583;48.714;9.386;2023-05-01T09:09:51;15.00;65.80
44851;DHT22;30583;48.714;9.386;2023-05-01T09:12:22;14.70;67.40
44851;DHT22;30583;48.714;9.386;2023-05-01T09:14:52;14.70;67.30
44851;DHT22;30583;48.714;9.386;2023-05-01T09:17:19;14.70;65.70
44851;DHT22;30583;48.714;9.386;2023-05-01T09:19:46;14.70;65.50
44851;DHT22;30583;48.714;9.386;2023-05-01T09:22:12;14.80;65.20
44851;DHT22;30583;48.714;9.386;2023-05-01T09:24:37;14.90;65.50
44851;DHT22;30583;48.714;9.386;2023-05-01T09:27:03;14.80;66.50
44851;DHT22;30583;48.714;9.386;2023-05-01T09:29:38;15.20;65.40
44851;DHT22;30583;48.714;9.386;2023-05-01T09:32:20;15.20;65.30
44851;DHT22;30583;48.714;9.386;2023-05-01T09:34:47;15.10;65.10
44851;DHT22;30583;48.714;9.386;2023-05-01T09:37:30;15.00;66.20
44851;DHT22;30583;48.714;9.386;2023-05-01T09:42:33;15.80;64.90
44851;DHT22;30583;48.714;9.386;2023-05-01T09:44:59;15.60;64.80
44851;DHT22;30583;48.714;9.386;2023-05-01T09:47:27;15.60;64.80
44851;DHT22;30583;48.714;9.386;2023-05-01T09:49:55;15.70;64.70
44851;DHT22;30583;48.714;9.386;2023-05-01T09:52:30;15.90;64.30
44851;DHT22;30583;48.714;9.386;2023-05-01T09:55:16;15.90;63.00
44851;DHT22;30583;48.714;9.386;2023-05-01T09:57:44;16.20;64.60
44851;DHT22;30583;48.714;9.386;2023-05-01T10:00:13;15.70;63.80
44851;DHT22;30583;48.714;9.386;2023-05-01T10:02:49;15.70;64.80
44851;DHT22;30583;48.714;9.386;2023-05-01T10:05:14;16.20;65.20
44851;DHT22;30583;48.714;9.386;2023-05-01T10:07:55;16.10;63.80
44851;DHT22;30583;48.714;9.386;2023-05-01T10:10:22;16.30;64.20
44851;DHT22;30583;48.714;9.386;2023-05-01T10:12:47;16.40;64.80
44851;DHT22;30583;48.714;9.386;2023-05-01T10:15:14;16.60;64.00
44851;DHT22;30583;48.714;9.386;2023-05-01T10:17:41;16.70;64.80
44851;DHT22;30583;48.714;9.386;2023-05-01T10:20:10;16.70;64.30
44851;DHT22;30583;48.714;9.386;2023-05-01T10:22:37;16.70;64.80
44851;DHT22;30583;48.714;9.386;2023-05-01T10:25:06;16.70;64.30
44851;DHT22;30583;48.714;9.386;2023-05-01T10:27:33;16.80;64.00
44851;DHT22;30583;48.714;9.386;2023-05-01T10:30:02;17.00;64.60
44851;DHT22;30583;48.714;9.386;2023-05-01T10:32:29;16.90;63.40
44851;DHT22;30583;48.714;9.386;2023-05-01T10:35:01;16.80;63.40
44851;DHT22;30583;48.714;9.386;2023-05-01T10:37:36;16.90;63.70
44851;DHT22;30583;48.714;9.386;2023-05-01T10:45:47;17.10;63.20
44851;DHT22;30583;48.714;9.386;2023-05-01T10:51:10;17.60;62.50
44851;DHT22;30583;48.714;9.386;2023-05-01T10:53:37;17.70;61.40
44851;DHT22;30583;48.714;9.386;2023-05-01T10:56:03;17.50;60.00
44851;DHT22;30583;48.714;9.386;2023-05-01T11:01:35;17.20;59.90
44851;DHT22;30583;48.714;9.386;2023-05-01T11:09:39;16.70;60.60
44851;DHT22;30583;48.714;9.386;2023-05-01T11:12:25;17.00;61.80
44851;DHT22;30583;48.714;9.386;2023-05-01T11:15:01;18.10;59.20
44851;DHT22;30583;48.714;9.386;2023-05-01T11:17:50;17.80;59.70
44851;DHT22;30583;48.714;9.386;2023-05-01T11:22:52;17.30;59.60
44851;DHT22;30583;48.714;9.386;2023-05-01T11:25:23;17.10;60.00
44851;DHT22;30583;48.714;9.386;2023-05-01T11:27:51;18.00;59.70
44851;DHT22;30583;48.714;9.386;2023-05-01T11:30:17;18.00;57.20
44851;DHT22;30583;48.714;9.386;2023-05-01T11:32:45;17.10;58.30
44851;DHT22;30583;48.714;9.386;2023-05-01T11:35:26;16.90;59.60
44851;DHT22;30583;48.714;9.386;2023-05-01T11:37:52;17.50;60.60
44851;DHT22;30583;48.714;9.386;2023-05-01T11:40:27;18.20;57.70
44851;DHT22;30583;48.714;9.386;2023-05-01T11:43:13;19.00;57.10
44851;DHT22;30583;48.714;9.386;2023-05-01T11:45:38;18.30;58.20
44851;DHT22;30583;48.714;9.386;2023-05-01T11:48:13;18.60;56.20
44851;DHT22;30583;48.714;9.386;2023-05-01T11:50:40;18.50;58.00
44851;DHT22;30583;48.714;9.386;2023-05-01T11:53:13;19.70;55.70
44851;DHT22;30583;48.714;9.386;2023-05-01T11:55:40;20.00;54.10
44851;DHT22;30583;48.714;9.386;2023-05-01T11:58:05;19.70;55.50
44851;DHT22;30583;48.714;9.386;2023-05-01T12:00:36;19.00;57.20
44851;DHT22;30583;48.714;9.386;2023-05-01T12:03:10;18.40;56.90
44851;DHT22;30583;48.714;9.386;2023-05-01T12:05:43;18.30;56.60
44851;DHT22;30583;48.714;9.386;2023-05-01T12:08:14;18.20;58.50
44851;DHT22;30583;48.714;9.386;2023-05-01T12:10:41;18.70;57.90
44851;DHT22;30583;48.714;9.386;2023-05-01T12:13:09;18.60;57.50
44851;DHT22;30583;48.714;9.386;2023-05-01T12:15:38;18.20;57.30
44851;DHT22;30583;48.714;9.386;2023-05-01T12:18:05;18.10;57.70
44851;DHT22;30583;48.714;9.386;2023-05-01T12:20:38;17.80;57.50
44851;DHT22;30583;48.714;9.386;2023-05-01T12:23:05;17.90;59.00
44851;DHT22;30583;48.714;9.386;2023-05-01T12:25:32;18.10;58.40
44851;DHT22;30583;48.714;9.386;2023-05-01T12:28:02;18.00;58.60
44851;DHT22;30583;48.714;9.386;2023-05-01T12:30:29;18.20;58.10
44851;DHT22;30583;48.714;9.386;2023-05-01T12:32:57;18.30;57.20
44851;DHT22;30583;48.714;9.386;2023-05-01T12:35:28;18.10;56.20
44851;DHT22;30583;48.714;9.386;2023-05-01T12:37:54;18.40;57.70
44851;DHT22;30583;48.714;9.386;2023-05-01T12:40:20;18.30;57.40
44851;DHT22;30583;48.714;9.386;2023-05-01T12:42:54;18.10;57.90
44851;DHT22;30583;48.714;9.386;2023-05-01T12:45:20;18.20;57.60
44851;DHT22;30583;48.714;9.386;2023-05-01T12:47:46;18.40;57.40
44851;DHT22;30583;48.714;9.386;2023-05-01T12:50:12;18.50;56.30
44851;DHT22;30583;48.714;9.386;2023-05-01T12:52:38;18.40;56.00
44851;DHT22;30583;48.714;9.386;2023-05-01T12:55:04;18.00;57.50
44851;DHT22;30583;48.714;9.386;2023-05-01T12:57:30;18.30;56.50
44851;DHT22;30583;48.714;9.386;2023-05-01T13:00:02;18.50;55.90
44851;DHT22;30583;48.714;9.386;2023-05-01T13:02:31;18.40;56.20
44851;DHT22;30583;48.714;9.386;2023-05-01T13:05:05;18.50;55.40
44851;DHT22;30583;48.714;9.386;2023-05-01T13:07:31;18.40;55.90
44851;DHT22;30583;48.714;9.386;2023-05-01T13:09:58;18.70;55.40
44851;DHT22;30583;48.714;9.386;2023-05-01T13:12:25;18.40;55.50
44851;DHT22;30583;48.714;9.386;2023-05-01T13:14:51;18.20;55.20
44851;DHT22;30583;48.714;9.386;2023-05-01T13:19:59;17.80;57.40
44851;DHT22;30583;48.714;9.386;2023-05-01T13:24:54;18.50;55.80
44851;DHT22;30583;48.714;9.386;2023-05-01T13:27:21;18.00;55.90
44851;DHT22;30583;48.714;9.386;2023-05-01T13:29:58;18.00;57.30
44851;DHT22;30583;48.714;9.386;2023-05-01T13:32:26;18.40;55.60
44851;DHT22;30583;48.714;9.386;2023-05-01T13:34:52;18.20;56.20
44851;DHT22;30583;48.714;9.386;2023-05-01T13:37:22;18.80;54.60
44851;DHT22;30583;48.714;9.386;2023-05-01T13:39:48;18.60;55.10
44851;DHT22;30583;48.714;9.386;2023-05-01T13:42:23;18.30;55.00
44851;DHT22;30583;48.714;9.386;2023-05-01T13:44:54;18.00;56.50
44851;DHT22;30583;48.714;9.386;2023-05-01T13:47:22;17.70;56.70
44851;DHT22;30583;48.714;9.386;2023-05-01T13:49:51;18.10;55.30
44851;DHT22;30583;48.714;9.386;2023-05-01T13:52:17;18.00;56.00
44851;DHT22;30583;48.714;9.386;2023-05-01T13:54:44;18.00;56.30
44851;DHT22;30583;48.714;9.386;2023-05-01T13:57:11;17.40;57.80
44851;DHT22;30583;48.714;9.386;2023-05-01T13:59:45;17.60;57.30
44851;DHT22;30583;48.714;9.386;2023-05-01T14:02:19;17.60;57.50
44851;DHT22;30583;48.714;9.386;2023-05-01T14:04:46;17.80;57.50
44851;DHT22;30583;48.714;9.386;2023-05-01T14:07:20;17.50;58.50
44851;DHT22;30583;48.714;9.386;2023-05-01T14:09:52;17.40;59.80
44851;DHT22;30583;48.714;9.386;2023-05-01T14:12:30;17.10;61.90
44851;DHT22;30583;48.714;9.386;2023-05-01T14:14:57;16.90;62.60
44851;DHT22;30583;48.714;9.386;2023-05-01T14:17:34;16.60;64.80
44851;DHT22;30583;48.714;9.386;2023-05-01T14:20:00;16.40;65.70
44851;DHT22;30583;48.714;9.386;2023-05-01T14:22:36;16.20;67.60
44851;DHT22;30583;48.714;9.386;2023-05-01T14:25:05;15.80;70.80
44851;DHT22;30583;48.714;9.386;2023-05-01T14:27:32;15.70;72.30
44851;DHT22;30583;48.714;9.386;2023-05-01T14:29:57;15.60;73.60
44851;DHT22;30583;48.714;9.386;2023-05-01T14:32:24;15.50;72.20
44851;DHT22;30583;48.714;9.386;2023-05-01T14:34:50;15.50;73.20
44851;DHT22;30583;48.714;9.386;2023-05-01T14:37:16;15.70;73.40
44851;DHT22;30583;48.714;9.386;2023-05-01T14:39:42;16.40;69.40
44851;DHT22;30583;48.714;9.386;2023-05-01T14:42:08;17.20;66.90
44851;DHT22;30583;48.714;9.386;2023-05-01T14:44:38;17.30;67.40
44851;DHT22;30583;48.714;9.386;2023-05-01T14:47:07;17.10;66.90
44851;DHT22;30583;48.714;9.386;2023-05-01T14:49:33;17.20;68.30
44851;DHT22;30583;48.714;9.386;2023-05-01T14:52:00;17.10;69.60
44851;DHT22;30583;48.714;9.386;2023-05-01T14:54:25;16.30;71.10
44851;DHT22;30583;48.714;9.386;2023-05-01T14:56:51;16.30;72.00
44851;DHT22;30583;48.714;9.386;2023-05-01T14:59:17;16.10;71.50
44851;DHT22;30583;48.714;9.386;2023-05-01T15:01:42;16.20;71.70
44851;DHT22;30583;48.714;9.386;2023-05-01T15:04:08;16.70;69.80
44851;DHT22;30583;48.714;9.386;2023-05-01T15:06:35;16.20;71.60
44851;DHT22;30583;48.714;9.386;2023-05-01T15:09:01;16.60;69.00
44851;DHT22;30583;48.714;9.386;2023-05-01T15:11:27;17.20;66.60
44851;DHT22;30583;48.714;9.386;2023-05-01T15:13:53;17.40;65.40
44851;DHT22;30583;48.714;9.386;2023-05-01T15:16:19;17.40;66.10
44851;DHT22;30583;48.714;9.386;2023-05-01T15:18:44;17.10;68.80
44851;DHT22;30583;48.714;9.386;2023-05-01T15:21:10;17.20;67.80
44851;DHT22;30583;48.714;9.386;2023-05-01T15:23:36;17.30;66.70
44851;DHT22;30583;48.714;9.386;2023-05-01T15:26:01;17.00;70.80
44851;DHT22;30583;48.714;9.386;2023-05-01T15:28:28;16.80;71.10
44851;DHT22;30583;48.714;9.386;2023-05-01T15:30:53;16.40;72.70
44851;DHT22;30583;48.714;9.386;2023-05-01T15:33:20;15.80;72.50
44851;DHT22;30583;48.714;9.386;2023-05-01T15:35:46;15.80;73.40
44851;DHT22;30583;48.714;9.386;2023-05-01T15:38:13;15.60;74.70
44851;DHT22;30583;48.714;9.386;2023-05-01T15:40:38;15.50;75.60
44851;DHT22;30583;48.714;9.386;2023-05-01T15:43:06;15.20;77.40
44851;DHT22;30583;48.714;9.386;2023-05-01T15:45:32;15.00;78.80
44851;DHT22;30583;48.714;9.386;2023-05-01T15:47:57;14.70;80.10
44851;DHT22;30583;48.714;9.386;2023-05-01T15:50:23;14.80;80.60
44851;DHT22;30583;48.714;9.386;2023-05-01T15:52:49;14.90;81.10
44851;DHT22;30583;48.714;9.386;2023-05-01T15:55:16;14.70;81.70
44851;DHT22;30583;48.714;9.386;2023-05-01T15:57:44;15.00;81.40
44851;DHT22;30583;48.714;9.386;2023-05-01T16:00:11;15.10;80.90
44851;DHT22;30583;48.714;9.386;2023-05-01T16:02:39;15.00;81.50
44851;DHT22;30583;48.714;9.386;2023-05-01T16:05:05;15.00;82.10
44851;DHT22;30583;48.714;9.386;2023-05-01T16:07:30;15.20;81.10
44851;DHT22;30583;48.714;9.386;2023-05-01T16:09:57;15.30;80.70
44851;DHT22;30583;48.714;9.386;2023-05-01T16:12:23;15.60;79.50
44851;DHT22;30583;48.714;9.386;2023-05-01T16:14:51;15.60;78.40
44851;DHT22;30583;48.714;9.386;2023-05-01T16:17:17;15.70;79.70